sensor_id;sensor_type;location;lat;lon;timestamp;pressure;altitude;pressure_sealevel;temperature;humidity
53754;BME280;39667;52.274;20.964;2022-07-29T00:00:04;100914.35;;;17.59;58.92
53754;BME280;39667;52.274;20.964;2022-07-29T00:02:32;100916.46;;;17.53;59.11
53754;BME280;39667;52.274;20.964;2022-07-29T00:04:59;100909.33;;;17.48;59.28
53754;BME280;39667;52.274;20.964;2022-07-29T00:07:26;100912.68;;;17.49;59.40
53754;BME280;39667;52.274;20.964;2022-07-29T00:09:53;100914.52;;;17.47;59.48
53754;BME280;39667;52.274;20.964;2022-07-29T00:12:21;100918.23;;;17.48;59.41
53754;BME280;39667;52.274;20.964;2022-07-29T00:14:55;100920.13;;;17.44;59.51
53754;BME280;39667;52.274;20.964;2022-07-29T00:17:23;100924.27;;;17.42;59.68
53754;BME280;39667;52.274;20.964;2022-07-29T00:19:51;100923.37;;;17.37;59.84
53754;BME280;39667;52.274;20.964;2022-07-29T00:22:19;100928.02;;;17.36;60.07
53754;BME280;39667;52.274;20.964;2022-07-29T00:24:49;100926.31;;;17.33;60.19
53754;BME280;39667;52.274;20.964;2022-07-29T00:27:17;100923.31;;;17.32;60.16
53754;BME280;39667;52.274;20.964;2022-07-29T00:29:44;100924.77;;;17.31;60.24
53754;BME280;39667;52.274;20.964;2022-07-29T00:32:11;100927.48;;;17.29;60.32
53754;BME280;39667;52.274;20.964;2022-07-29T00:34:39;100927.04;;;17.26;60.31
53754;BME280;39667;52.274;20.964;2022-07-29T00:37:24;100927.09;;;17.24;60.52
53754;BME280;39667;52.274;20.964;2022-07-29T00:39:52;100921.14;;;17.21;60.65
53754;BME280;39667;52.274;20.964;2022-07-29T00:42:19;100927.69;;;17.22;60.69
53754;BME280;39667;52.274;20.964;2022-07-29T00:44:46;100920.61;;;17.20;60.70
53754;BME280;39667;52.274;20.964;2022-07-29T00:47:13;100920.34;;;17.17;60.69
53754;BME280;39667;52.274;20.964;2022-07-29T00:49:41;100911.02;;;17.15;60.94
53754;BME280;39667;52.274;20.964;2022-07-29T00:52:09;100911.48;;;17.16;60.95
53754;BME280;39667;52.274;20.964;2022-07-29T00:54:39;100912.57;;;17.15;61.23
53754;BME280;39667;52.274;20.964;2022-07-29T00:57:11;100913.74;;;17.12;61.22
53754;BME280;39667;52.274;20.964;2022-07-29T00:59:38;100916.94;;;17.13;61.34
53754;BME280;39667;52.274;20.964;2022-07-29T01:02:05;100912.65;;;17.13;61.46
53754;BME280;39667;52.274;20.964;2022-07-29T01:04:32;100912.65;;;17.13;61.44
53754;BME280;39667;52.274;20.964;2022-07-29T01:07:03;100918.84;;;17.14;61.49
53754;BME280;39667;52.274;20.964;2022-07-29T01:09:34;100918.09;;;17.15;61.51
53754;BME280;39667;52.274;20.964;2022-07-29T01:12:22;100918.29;;;17.14;61.49
53754;BME280;39667;52.274;20.964;2022-07-29T01:14:50;100916.55;;;17.14;61.59
53754;BME280;39667;52.274;20.964;2022-07-29T01:17:24;100919.75;;;17.13;61.61
53754;BME280;39667;52.274;20.964;2022-07-29T01:28:17;100921.95;;;16.96;61.80
53754;BME280;39667;52.274;20.964;2022-07-29T01:30:52;100921.70;;;16.92;62.10
53754;BME280;39667;52.274;20.964;2022-07-29T01:33:24;100921.88;;;16.93;61.97
53754;BME280;39667;52.274;20.964;2022-07-29T01:36:14;100921.51;;;16.93;62.15
53754;BME280;39667;52.274;20.964;2022-07-29T01:38:46;100918.60;;;16.89;62.14
53754;BME280;39667;52.274;20.964;2022-07-29T01:41:17;100920.75;;;16.89;62.37
53754;BME280;39667;52.274;20.964;2022-07-29T01:43:53;100922.20;;;16.88;62.30
53754;BME280;39667;52.274;20.964;2022-07-29T01:46:27;100924.36;;;16.86;62.43
53754;BME280;39667;52.274;20.964;2022-07-29T01:49:06;100926.39;;;16.83;62.56
53754;BME280;39667;52.274;20.964;2022-07-29T01:51:50;100926.40;;;16.83;62.46
53754;BME280;39667;52.274;20.964;2022-07-29T01:54:35;100925.10;;;16.85;62.60
53754;BME280;39667;52.274;20.964;2022-07-29T01:57:06;100926.46;;;16.80;62.74
53754;BME280;39667;52.274;20.964;2022-07-29T01:59:36;100920.73;;;16.76;62.55
53754;BME280;39667;52.274;20.964;2022-07-29T02:02:04;100918.23;;;16.69;62.81
53754;BME280;39667;52.274;20.964;2022-07-29T02:04:36;100926.45;;;16.67;63.08
53754;BME280;39667;52.274;20.964;2022-07-29T02:07:06;100926.77;;;16.62;63.17
53754;BME280;39667;52.274;20.964;2022-07-29T02:09:35;100927.61;;;16.57;63.37
53754;BME280;39667;52.274;20.964;2022-07-29T02:12:05;100929.66;;;16.53;63.41
53754;BME280;39667;52.274;20.964;2022-07-29T02:14:39;100929.19;;;16.51;63.73
53754;BME280;39667;52.274;20.964;2022-07-29T02:17:07;100925.76;;;16.53;63.90
53754;BME280;39667;52.274;20.964;2022-07-29T02:19:37;100919.05;;;16.51;63.92
53754;BME280;39667;52.274;20.964;2022-07-29T02:22:06;100923.52;;;16.50;63.79
53754;BME280;39667;52.274;20.964;2022-07-29T02:24:35;100920.66;;;16.50;64.06
53754;BME280;39667;52.274;20.964;2022-07-29T02:27:03;100916.54;;;16.45;64.13
53754;BME280;39667;52.274;20.964;2022-07-29T02:29:31;100922.39;;;16.45;64.18
53754;BME280;39667;52.274;20.964;2022-07-29T02:32:00;100920.15;;;16.43;64.33
53754;BME280;39667;52.274;20.964;2022-07-29T02:34:30;100920.97;;;16.45;64.34
53754;BME280;39667;52.274;20.964;2022-07-29T02:36:58;100922.31;;;16.49;64.36
53754;BME280;39667;52.274;20.964;2022-07-29T02:39:27;100925.09;;;16.51;64.38
53754;BME280;39667;52.274;20.964;2022-07-29T02:42:02;100917.77;;;16.53;64.46
53754;BME280;39667;52.274;20.964;2022-07-29T02:44:30;100919.10;;;16.55;64.54
53754;BME280;39667;52.274;20.964;2022-07-29T02:49:36;100919.02;;;16.52;64.76
53754;BME280;39667;52.274;20.964;2022-07-29T02:52:13;100919.28;;;16.49;64.58
53754;BME280;39667;52.274;20.964;2022-07-29T02:54:51;100926.53;;;16.44;64.63
53754;BME280;39667;52.274;20.964;2022-07-29T02:57:22;100925.13;;;16.43;64.73
53754;BME280;39667;52.274;20.964;2022-07-29T02:59:57;100924.67;;;16.39;64.82
53754;BME280;39667;52.274;20.964;2022-07-29T03:02:26;100927.41;;;16.37;64.95
53754;BME280;39667;52.274;20.964;2022-07-29T03:04:57;100923.94;;;16.33;65.10
53754;BME280;39667;52.274;20.964;2022-07-29T03:07:26;100926.45;;;16.31;64.97
53754;BME280;39667;52.274;20.964;2022-07-29T03:09:54;100927.70;;;16.31;65.38
53754;BME280;39667;52.274;20.964;2022-07-29T03:12:22;100928.31;;;16.36;65.35
53754;BME280;39667;52.274;20.964;2022-07-29T03:14:50;100925.80;;;16.37;65.29
53754;BME280;39667;52.274;20.964;2022-07-29T03:17:18;100926.55;;;16.35;65.41
53754;BME280;39667;52.274;20.964;2022-07-29T03:19:45;100927.70;;;16.32;65.41
53754;BME280;39667;52.274;20.964;2022-07-29T03:22:13;100929.02;;;16.29;65.43
53754;BME280;39667;52.274;20.964;2022-07-29T03:24:44;100932.78;;;16.27;65.48
53754;BME280;39667;52.274;20.964;2022-07-29T03:27:13;100931.77;;;16.25;65.75
53754;BME280;39667;52.274;20.964;2022-07-29T03:29:39;100932.90;;;16.23;65.85
53754;BME280;39667;52.274;20.964;2022-07-29T03:32:14;100933.27;;;16.22;65.99
53754;BME280;39667;52.274;20.964;2022-07-29T03:34:49;100935.90;;;16.24;66.13
53754;BME280;39667;52.274;20.964;2022-07-29T03:37:16;100935.05;;;16.21;66.02
53754;BME280;39667;52.274;20.964;2022-07-29T03:39:44;100932.20;;;16.22;66.29
53754;BME280;39667;52.274;20.964;2022-07-29T03:42:15;100928.02;;;16.26;66.38
53754;BME280;39667;52.274;20.964;2022-07-29T03:44:45;100928.19;;;16.26;66.27
53754;BME280;39667;52.274;20.964;2022-07-29T03:47:15;100925.80;;;16.22;66.55
53754;BME280;39667;52.274;20.964;2022-07-29T03:49:48;100919.23;;;16.21;66.63
53754;BME280;39667;52.274;20.964;2022-07-29T03:52:17;100920.58;;;16.17;66.82
53754;BME280;39667;52.274;20.964;2022-07-29T03:54:44;100926.52;;;16.22;66.84
53754;BME280;39667;52.274;20.964;2022-07-29T03:57:12;100923.51;;;16.21;66.90
53754;BME280;39667;52.274;20.964;2022-07-29T03:59:41;100929.75;;;16.28;67.11
53754;BME280;39667;52.274;20.964;2022-07-29T04:02:11;100932.81;;;16.34;67.16
53754;BME280;39667;52.274;20.964;2022-07-29T04:04:42;100933.25;;;16.37;67.17
53754;BME280;39667;52.274;20.964;2022-07-29T04:07:12;100932.29;;;16.40;67.12
53754;BME280;39667;52.274;20.964;2022-07-29T04:09:39;100933.32;;;16.42;67.11
53754;BME280;39667;52.274;20.964;2022-07-29T04:12:06;100931.19;;;16.42;67.36
53754;BME280;39667;52.274;20.964;2022-07-29T04:14:34;100925.52;;;16.41;67.33
53754;BME280;39667;52.274;20.964;2022-07-29T04:17:02;100927.15;;;16.47;67.37
53754;BME280;39667;52.274;20.964;2022-07-29T04:19:30;100931.90;;;16.49;67.30
53754;BME280;39667;52.274;20.964;2022-07-29T04:21:57;100930.27;;;16.50;67.46
53754;BME280;39667;52.274;20.964;2022-07-29T04:24:25;100933.28;;;16.51;67.47
53754;BME280;39667;52.274;20.964;2022-07-29T04:26:52;100930.37;;;16.54;67.51
53754;BME280;39667;52.274;20.964;2022-07-29T04:29:19;100932.38;;;16.58;67.58
53754;BME280;39667;52.274;20.964;2022-07-29T04:31:46;100928.30;;;16.57;67.64
53754;BME280;39667;52.274;20.964;2022-07-29T04:34:13;100928.80;;;16.59;67.74
53754;BME280;39667;52.274;20.964;2022-07-29T04:36:40;100937.08;;;16.63;67.77
53754;BME280;39667;52.274;20.964;2022-07-29T04:39:07;100935.63;;;16.63;67.77
53754;BME280;39667;52.274;20.964;2022-07-29T04:41:34;100935.62;;;16.64;67.74
53754;BME280;39667;52.274;20.964;2022-07-29T04:44:01;100933.27;;;16.65;67.95
53754;BME280;39667;52.274;20.964;2022-07-29T04:46:33;100933.88;;;16.69;67.96
53754;BME280;39667;52.274;20.964;2022-07-29T04:49:02;100933.10;;;16.71;68.04
53754;BME280;39667;52.274;20.964;2022-07-29T04:51:30;100933.44;;;16.73;67.93
53754;BME280;39667;52.274;20.964;2022-07-29T04:53:57;100935.84;;;16.76;67.94
53754;BME280;39667;52.274;20.964;2022-07-29T04:56:24;100937.18;;;16.79;67.93
53754;BME280;39667;52.274;20.964;2022-07-29T04:58:51;100943.32;;;16.82;67.91
53754;BME280;39667;52.274;20.964;2022-07-29T05:01:18;100940.27;;;16.84;67.97
53754;BME280;39667;52.274;20.964;2022-07-29T05:03:45;100943.10;;;16.91;67.94
53754;BME280;39667;52.274;20.964;2022-07-29T05:06:12;100944.45;;;16.93;67.89
53754;BME280;39667;52.274;20.964;2022-07-29T05:08:39;100939.79;;;16.95;67.75
53754;BME280;39667;52.274;20.964;2022-07-29T05:11:07;100941.83;;;16.99;67.78
53754;BME280;39667;52.274;20.964;2022-07-29T05:13:39;100941.55;;;17.02;67.58
53754;BME280;39667;52.274;20.964;2022-07-29T05:16:12;100947.85;;;17.06;67.69
53754;BME280;39667;52.274;20.964;2022-07-29T05:18:40;100945.67;;;17.09;67.44
53754;BME280;39667;52.274;20.964;2022-07-29T05:21:07;100949.38;;;17.11;67.62
53754;BME280;39667;52.274;20.964;2022-07-29T05:23:34;100948.02;;;17.14;67.62
53754;BME280;39667;52.274;20.964;2022-07-29T05:26:01;100948.20;;;17.20;67.45
53754;BME280;39667;52.274;20.964;2022-07-29T05:28:32;100945.73;;;17.27;67.51
53754;BME280;39667;52.274;20.964;2022-07-29T05:30:59;100949.48;;;17.32;67.37
53754;BME280;39667;52.274;20.964;2022-07-29T05:33:26;100945.48;;;17.36;67.31
53754;BME280;39667;52.274;20.964;2022-07-29T05:36:05;100946.17;;;17.42;67.22
53754;BME280;39667;52.274;20.964;2022-07-29T05:38:34;100949.15;;;17.50;67.04
53754;BME280;39667;52.274;20.964;2022-07-29T05:41:03;100951.66;;;17.55;66.89
53754;BME280;39667;52.274;20.964;2022-07-29T05:43:30;100946.77;;;17.59;66.85
53754;BME280;39667;52.274;20.964;2022-07-29T05:45:57;100947.01;;;17.62;66.78
53754;BME280;39667;52.274;20.964;2022-07-29T05:48:24;100946.28;;;17.63;66.38
53754;BME280;39667;52.274;20.964;2022-07-29T05:50:52;100945.16;;;17.65;66.36
53754;BME280;39667;52.274;20.964;2022-07-29T05:53:19;100939.38;;;17.67;66.22
53754;BME280;39667;52.274;20.964;2022-07-29T05:55:47;100931.09;;;17.71;65.96
53754;BME280;39667;52.274;20.964;2022-07-29T05:58:14;100936.91;;;17.73;65.96
53754;BME280;39667;52.274;20.964;2022-07-29T06:00:41;100936.52;;;17.74;65.69
53754;BME280;39667;52.274;20.964;2022-07-29T06:03:09;100935.39;;;17.76;65.38
53754;BME280;39667;52.274;20.964;2022-07-29T06:05:36;100939.67;;;17.76;65.46
53754;BME280;39667;52.274;20.964;2022-07-29T06:08:03;100938.52;;;17.79;65.16
53754;BME280;39667;52.274;20.964;2022-07-29T06:10:37;100937.30;;;17.83;65.27
53754;BME280;39667;52.274;20.964;2022-07-29T06:13:04;100933.02;;;17.89;65.01
53754;BME280;39667;52.274;20.964;2022-07-29T06:15:31;100936.23;;;17.95;64.74
53754;BME280;39667;52.274;20.964;2022-07-29T06:17:58;100935.09;;;17.97;64.63
53754;BME280;39667;52.274;20.964;2022-07-29T06:20:28;100930.23;;;17.99;64.66
53754;BME280;39667;52.274;20.964;2022-07-29T06:22:57;100933.66;;;18.03;64.59
53754;BME280;39667;52.274;20.964;2022-07-29T06:25:24;100930.23;;;18.04;64.38
53754;BME280;39667;52.274;20.964;2022-07-29T06:27:50;100931.23;;;18.07;64.18
53754;BME280;39667;52.274;20.964;2022-07-29T06:30:18;100930.08;;;18.10;64.08
53754;BME280;39667;52.274;20.964;2022-07-29T06:32:45;100929.09;;;18.14;64.16
53754;BME280;39667;52.274;20.964;2022-07-29T06:35:12;100931.09;;;18.18;64.25
53754;BME280;39667;52.274;20.964;2022-07-29T06:37:59;100924.91;;;18.22;63.99
53754;BME280;39667;52.274;20.964;2022-07-29T06:40:26;100927.61;;;18.26;63.94
53754;BME280;39667;52.274;20.964;2022-07-29T06:43:13;100930.67;;;18.30;64.00
53754;BME280;39667;52.274;20.964;2022-07-29T06:45:40;100934.30;;;18.34;63.67
53754;BME280;39667;52.274;20.964;2022-07-29T06:48:09;100936.73;;;18.37;63.42
53754;BME280;39667;52.274;20.964;2022-07-29T06:50:36;100933.76;;;18.40;63.29
53754;BME280;39667;52.274;20.964;2022-07-29T06:53:03;100936.80;;;18.45;63.19
53754;BME280;39667;52.274;20.964;2022-07-29T06:55:30;100933.63;;;18.49;63.05
53754;BME280;39667;52.274;20.964;2022-07-29T06:57:57;100931.31;;;18.54;63.05
53754;BME280;39667;52.274;20.964;2022-07-29T07:00:25;100933.10;;;18.60;62.88
53754;BME280;39667;52.274;20.964;2022-07-29T07:02:52;100929.14;;;18.61;62.49
53754;BME280;39667;52.274;20.964;2022-07-29T07:05:19;100934.12;;;18.67;62.50
53754;BME280;39667;52.274;20.964;2022-07-29T07:07:46;100933.40;;;18.72;62.48
53754;BME280;39667;52.274;20.964;2022-07-29T07:10:12;100931.27;;;18.77;62.30
53754;BME280;39667;52.274;20.964;2022-07-29T07:12:39;100932.01;;;18.81;62.42
53754;BME280;39667;52.274;20.964;2022-07-29T07:15:06;100928.81;;;18.87;62.17
53754;BME280;39667;52.274;20.964;2022-07-29T07:17:33;100931.80;;;18.92;61.94
53754;BME280;39667;52.274;20.964;2022-07-29T07:20:00;100931.43;;;18.98;61.73
53754;BME280;39667;52.274;20.964;2022-07-29T07:22:28;100930.97;;;19.07;61.70
53754;BME280;39667;52.274;20.964;2022-07-29T07:24:54;100930.19;;;19.14;61.69
53754;BME280;39667;52.274;20.964;2022-07-29T07:27:22;100925.49;;;19.20;61.49
53754;BME280;39667;52.274;20.964;2022-07-29T07:29:49;100922.06;;;19.26;61.26
53754;BME280;39667;52.274;20.964;2022-07-29T07:32:16;100927.06;;;19.31;60.98
53754;BME280;39667;52.274;20.964;2022-07-29T07:34:43;100924.46;;;19.39;60.98
53754;BME280;39667;52.274;20.964;2022-07-29T07:37:11;100927.35;;;19.47;61.08
53754;BME280;39667;52.274;20.964;2022-07-29T07:39:38;100929.30;;;19.57;60.97
53754;BME280;39667;52.274;20.964;2022-07-29T07:42:05;100926.82;;;19.66;60.39
53754;BME280;39667;52.274;20.964;2022-07-29T07:44:32;100927.25;;;19.74;60.14
53754;BME280;39667;52.274;20.964;2022-07-29T07:47:12;100926.20;;;19.83;60.11
53754;BME280;39667;52.274;20.964;2022-07-29T07:49:40;100925.60;;;19.89;59.72
53754;BME280;39667;52.274;20.964;2022-07-29T07:52:10;100925.31;;;19.96;59.63
53754;BME280;39667;52.274;20.964;2022-07-29T07:54:38;100926.95;;;20.05;59.63
53754;BME280;39667;52.274;20.964;2022-07-29T07:57:05;100928.50;;;20.15;59.85
53754;BME280;39667;52.274;20.964;2022-07-29T07:59:31;100931.08;;;20.27;59.69
53754;BME280;39667;52.274;20.964;2022-07-29T08:01:58;100928.06;;;20.39;59.62
53754;BME280;39667;52.274;20.964;2022-07-29T08:04:27;100929.70;;;20.51;59.02
53754;BME280;39667;52.274;20.964;2022-07-29T08:06:56;100933.67;;;20.63;58.58
53754;BME280;39667;52.274;20.964;2022-07-29T08:09:25;100933.71;;;20.75;58.32
53754;BME280;39667;52.274;20.964;2022-07-29T08:11:56;100930.63;;;20.89;58.14
53754;BME280;39667;52.274;20.964;2022-07-29T08:14:24;100935.14;;;21.05;58.15
53754;BME280;39667;52.274;20.964;2022-07-29T08:16:52;100924.23;;;21.17;57.80
53754;BME280;39667;52.274;20.964;2022-07-29T08:19:19;100918.98;;;21.30;57.00
53754;BME280;39667;52.274;20.964;2022-07-29T08:21:46;100919.20;;;21.41;56.86
53754;BME280;39667;52.274;20.964;2022-07-29T08:24:14;100917.33;;;21.55;56.65
53754;BME280;39667;52.274;20.964;2022-07-29T08:27:00;100915.48;;;21.71;56.42
53754;BME280;39667;52.274;20.964;2022-07-29T08:29:27;100909.40;;;21.87;56.11
53754;BME280;39667;52.274;20.964;2022-07-29T08:31:54;100906.94;;;22.00;55.78
53754;BME280;39667;52.274;20.964;2022-07-29T08:34:22;100907.99;;;22.15;55.03
53754;BME280;39667;52.274;20.964;2022-07-29T08:36:53;100909.94;;;22.31;54.88
53754;BME280;39667;52.274;20.964;2022-07-29T08:39:23;100910.80;;;22.46;54.51
53754;BME280;39667;52.274;20.964;2022-07-29T08:41:51;100909.40;;;22.60;54.18
53754;BME280;39667;52.274;20.964;2022-07-29T08:44:23;100909.55;;;22.78;53.89
53754;BME280;39667;52.274;20.964;2022-07-29T08:46:56;100908.99;;;22.96;53.48
53754;BME280;39667;52.274;20.964;2022-07-29T08:49:23;100914.98;;;23.12;52.54
53754;BME280;39667;52.274;20.964;2022-07-29T08:51:51;100914.34;;;23.31;52.41
53754;BME280;39667;52.274;20.964;2022-07-29T08:54:22;100917.19;;;23.51;52.50
53754;BME280;39667;52.274;20.964;2022-07-29T08:56:50;100917.43;;;23.73;52.06
53754;BME280;39667;52.274;20.964;2022-07-29T08:59:22;100914.16;;;23.93;51.49
53754;BME280;39667;52.274;20.964;2022-07-29T09:01:52;100911.05;;;23.94;50.64
53754;BME280;39667;52.274;20.964;2022-07-29T09:04:21;100911.71;;;24.05;50.36
53754;BME280;39667;52.274;20.964;2022-07-29T09:06:52;100908.98;;;24.15;49.66
53754;BME280;39667;52.274;20.964;2022-07-29T09:09:21;100907.16;;;24.11;49.10
53754;BME280;39667;52.274;20.964;2022-07-29T09:11:48;100903.62;;;24.18;48.29
53754;BME280;39667;52.274;20.964;2022-07-29T09:14:15;100900.90;;;24.30;48.22
53754;BME280;39667;52.274;20.964;2022-07-29T09:17:02;100896.99;;;24.42;47.76
53754;BME280;39667;52.274;20.964;2022-07-29T09:19:32;100893.39;;;24.60;47.88
53754;BME280;39667;52.274;20.964;2022-07-29T09:22:05;100896.91;;;24.79;47.30
53754;BME280;39667;52.274;20.964;2022-07-29T09:29:37;100899.91;;;24.99;45.72
53754;BME280;39667;52.274;20.964;2022-07-29T09:32:08;100902.59;;;24.93;45.33
53754;BME280;39667;52.274;20.964;2022-07-29T09:34:36;100894.75;;;24.98;45.35
53754;BME280;39667;52.274;20.964;2022-07-29T09:37:04;100887.47;;;25.16;45.45
53754;BME280;39667;52.274;20.964;2022-07-29T09:39:32;100881.58;;;25.38;45.54
53754;BME280;39667;52.274;20.964;2022-07-29T09:42:04;100881.06;;;25.61;45.06
53754;BME280;39667;52.274;20.964;2022-07-29T09:44:48;100884.15;;;25.81;44.61
53754;BME280;39667;52.274;20.964;2022-07-29T09:47:18;100883.17;;;25.90;43.93
53754;BME280;39667;52.274;20.964;2022-07-29T09:49:55;100888.73;;;25.90;43.39
53754;BME280;39667;52.274;20.964;2022-07-29T09:52:28;100882.61;;;25.90;43.04
53754;BME280;39667;52.274;20.964;2022-07-29T09:55:09;100880.48;;;25.95;42.99
53754;BME280;39667;52.274;20.964;2022-07-29T09:57:45;100875.81;;;25.92;42.69
53754;BME280;39667;52.274;20.964;2022-07-29T10:00:17;100875.13;;;25.94;42.41
53754;BME280;39667;52.274;20.964;2022-07-29T10:02:45;100880.66;;;25.90;41.94
53754;BME280;39667;52.274;20.964;2022-07-29T10:05:24;100875.95;;;25.90;41.86
53754;BME280;39667;52.274;20.964;2022-07-29T10:07:57;100876.42;;;25.91;41.86
53754;BME280;39667;52.274;20.964;2022-07-29T10:10:27;100872.27;;;25.96;42.24
53754;BME280;39667;52.274;20.964;2022-07-29T10:12:58;100865.15;;;26.01;41.93
53754;BME280;39667;52.274;20.964;2022-07-29T10:15:35;100865.00;;;25.92;41.82
53754;BME280;39667;52.274;20.964;2022-07-29T10:18:08;100860.80;;;25.88;41.88
53754;BME280;39667;52.274;20.964;2022-07-29T10:20:36;100858.02;;;25.86;42.05
53754;BME280;39667;52.274;20.964;2022-07-29T10:23:03;100858.45;;;25.84;42.20
53754;BME280;39667;52.274;20.964;2022-07-29T10:25:31;100863.32;;;25.84;42.40
53754;BME280;39667;52.274;20.964;2022-07-29T10:27:58;100859.55;;;25.90;42.02
53754;BME280;39667;52.274;20.964;2022-07-29T10:30:26;100858.60;;;25.99;41.63
53754;BME280;39667;52.274;20.964;2022-07-29T10:43:37;100848.96;;;26.62;40.10
53754;BME280;39667;52.274;20.964;2022-07-29T10:46:08;100848.02;;;26.73;39.89
53754;BME280;39667;52.274;20.964;2022-07-29T10:51:51;100849.73;;;26.72;39.51
53754;BME280;39667;52.274;20.964;2022-07-29T10:54:36;100849.35;;;26.72;39.02
53754;BME280;39667;52.274;20.964;2022-07-29T10:59:39;100842.65;;;27.08;38.44
53754;BME280;39667;52.274;20.964;2022-07-29T11:05:14;100841.95;;;26.95;38.59
53754;BME280;39667;52.274;20.964;2022-07-29T11:13:51;100829.02;;;27.28;38.47
53754;BME280;39667;52.274;20.964;2022-07-29T11:16:22;100832.98;;;27.35;37.95
53754;BME280;39667;52.274;20.964;2022-07-29T11:21:42;100829.08;;;27.14;37.38
53754;BME280;39667;52.274;20.964;2022-07-29T11:24:28;100823.41;;;27.07;37.10
53754;BME280;39667;52.274;20.964;2022-07-29T11:27:18;100824.66;;;26.99;37.43
53754;BME280;39667;52.274;20.964;2022-07-29T11:29:57;100819.48;;;26.96;37.45
53754;BME280;39667;52.274;20.964;2022-07-29T11:32:37;100821.33;;;26.96;37.74
53754;BME280;39667;52.274;20.964;2022-07-29T11:35:19;100822.36;;;27.04;37.74
53754;BME280;39667;52.274;20.964;2022-07-29T11:38:24;100817.02;;;27.13;37.45
53754;BME280;39667;52.274;20.964;2022-07-29T11:41:19;100821.16;;;27.31;37.10
53754;BME280;39667;52.274;20.964;2022-07-29T11:43:51;100818.77;;;27.44;36.79
53754;BME280;39667;52.274;20.964;2022-07-29T11:46:44;100813.59;;;27.50;36.74
53754;BME280;39667;52.274;20.964;2022-07-29T11:49:19;100815.39;;;27.50;36.23
53754;BME280;39667;52.274;20.964;2022-07-29T11:51:57;100813.96;;;27.50;36.15
53754;BME280;39667;52.274;20.964;2022-07-29T11:54:34;100814.41;;;27.67;36.04
53754;BME280;39667;52.274;20.964;2022-07-29T11:57:21;100812.79;;;27.93;36.10
53754;BME280;39667;52.274;20.964;2022-07-29T12:00:06;100810.92;;;28.16;35.84
53754;BME280;39667;52.274;20.964;2022-07-29T12:02:42;100805.66;;;28.35;35.53
53754;BME280;39667;52.274;20.964;2022-07-29T12:05:14;100806.20;;;28.54;35.45
53754;BME280;39667;52.274;20.964;2022-07-29T12:07:49;100806.63;;;28.81;35.42
53754;BME280;39667;52.274;20.964;2022-07-29T12:10:18;100797.81;;;28.91;34.69
53754;BME280;39667;52.274;20.964;2022-07-29T12:12:56;100805.40;;;28.78;34.49
53754;BME280;39667;52.274;20.964;2022-07-29T12:15:24;100807.83;;;28.52;34.36
53754;BME280;39667;52.274;20.964;2022-07-29T12:18:14;100809.49;;;28.42;34.44
53754;BME280;39667;52.274;20.964;2022-07-29T12:20:44;100805.59;;;28.46;34.51
53754;BME280;39667;52.274;20.964;2022-07-29T12:23:12;100804.46;;;28.48;34.17
53754;BME280;39667;52.274;20.964;2022-07-29T12:25:43;100803.05;;;28.41;33.90
53754;BME280;39667;52.274;20.964;2022-07-29T12:28:15;100804.19;;;28.42;34.11
53754;BME280;39667;52.274;20.964;2022-07-29T12:30:53;100806.84;;;28.50;34.23
53754;BME280;39667;52.274;20.964;2022-07-29T12:33:25;100801.03;;;28.67;34.15
53754;BME280;39667;52.274;20.964;2022-07-29T12:35:54;100794.33;;;28.87;33.87
53754;BME280;39667;52.274;20.964;2022-07-29T12:38:34;100791.07;;;28.90;33.73
53754;BME280;39667;52.274;20.964;2022-07-29T12:41:02;100790.04;;;28.82;33.55
53754;BME280;39667;52.274;20.964;2022-07-29T12:43:30;100789.06;;;28.69;33.38
53754;BME280;39667;52.274;20.964;2022-07-29T12:46:12;100793.38;;;28.46;33.60
53754;BME280;39667;52.274;20.964;2022-07-29T12:48:41;100784.67;;;28.30;33.69
53754;BME280;39667;52.274;20.964;2022-07-29T12:51:10;100784.91;;;28.17;33.97
53754;BME280;39667;52.274;20.964;2022-07-29T12:53:38;100782.36;;;28.10;34.02
53754;BME280;39667;52.274;20.964;2022-07-29T12:56:15;100787.38;;;28.02;34.08
53754;BME280;39667;52.274;20.964;2022-07-29T12:59:29;100791.54;;;27.97;33.88
53754;BME280;39667;52.274;20.964;2022-07-29T13:01:56;100793.31;;;27.87;34.03
53754;BME280;39667;52.274;20.964;2022-07-29T13:04:30;100790.78;;;27.80;34.03
53754;BME280;39667;52.274;20.964;2022-07-29T13:06:59;100787.70;;;27.69;34.25
53754;BME280;39667;52.274;20.964;2022-07-29T13:09:41;100787.78;;;27.62;34.28
53754;BME280;39667;52.274;20.964;2022-07-29T13:12:10;100783.61;;;27.52;34.55
53754;BME280;39667;52.274;20.964;2022-07-29T13:14:46;100775.99;;;27.48;34.69
53754;BME280;39667;52.274;20.964;2022-07-29T13:17:14;100771.16;;;27.42;34.66
53754;BME280;39667;52.274;20.964;2022-07-29T13:19:47;100768.02;;;27.38;34.95
53754;BME280;39667;52.274;20.964;2022-07-29T13:22:18;100765.48;;;27.40;35.03
53754;BME280;39667;52.274;20.964;2022-07-29T13:24:55;100770.77;;;27.50;35.04
53754;BME280;39667;52.274;20.964;2022-07-29T13:27:25;100768.12;;;27.61;35.31
53754;BME280;39667;52.274;20.964;2022-07-29T13:29:54;100768.12;;;27.74;35.39
53754;BME280;39667;52.274;20.964;2022-07-29T13:32:24;100766.86;;;27.93;34.57
53754;BME280;39667;52.274;20.964;2022-07-29T13:34:59;100763.08;;;28.12;34.46
53754;BME280;39667;52.274;20.964;2022-07-29T13:37:31;100758.66;;;28.34;34.45
53754;BME280;39667;52.274;20.964;2022-07-29T13:40:02;100749.76;;;28.71;34.11
53754;BME280;39667;52.274;20.964;2022-07-29T13:42:31;100753.59;;;28.98;33.40